Check out our new BloomSky Weather System.

Active alerts


No alerts


Thunder radar  blitzortung!


Rain radar more information rain snow radar


Visit our other weather sites:

Template documentation
and downloads

And another site



Weather Underground History page Text

Daily Summary for June 17, 2017 Units:  English    Metric   Both
« Previous Day
Next Day »
Daily Weekly Monthly Yearly Custom
  High: Low: Average:
Temperature: 93.9 °F 78.3 °F 85.2 °F
Dew Point: 77.9 °F 75.0 °F 76.3 °F
Humidity: 93 % 57 % 76 %
Wind Speed: 13.0 mph 1.0 mph 4.9 mph
Wind Gust: 16.0 mph - -
Wind:- - South
Pressure: 29.81 in 29.71 in -
Precipitation: 0.00 in    
Historical Graphs
 
 
Tabular Data for June 17, 2017
Time Temperature Dew Point Pressure Wind Wind Speed Wind Gust Humidity Rainfall Rate (Hourly)
00:04 80.8 °F 75.2 °F 29.80 in South 2.0 mph 9.0 mph 83 % 0.00 in
00:09 80.8 °F 75.6 °F 29.80 in SE 4.0 mph 9.0 mph 84 % 0.00 in
00:14 80.6 °F 75.4 °F 29.80 in SW 2.0 mph 9.0 mph 84 % 0.00 in
00:19 80.4 °F 75.2 °F 29.80 in SSW 1.0 mph 6.0 mph 84 % 0.00 in
00:24 80.2 °F 75.0 °F 29.80 in South 4.0 mph 6.0 mph 84 % 0.00 in
00:29 80.2 °F 75.4 °F 29.80 in SSW 4.0 mph 6.0 mph 85 % 0.00 in
00:34 80.2 °F 75.4 °F 29.80 in South 2.0 mph 6.0 mph 85 % 0.00 in
00:39 80.2 °F 75.4 °F 29.79 in ESE 2.0 mph 6.0 mph 85 % 0.00 in
00:44 80.1 °F 75.6 °F 29.79 in SSE 1.0 mph 6.0 mph 86 % 0.00 in
00:49 80.1 °F 75.6 °F 29.80 in SE 2.0 mph 6.0 mph 86 % 0.00 in
00:54 80.1 °F 75.9 °F 29.80 in SSE 1.0 mph 6.0 mph 87 % 0.00 in
00:59 79.9 °F 75.7 °F 29.80 in South 2.0 mph 6.0 mph 87 % 0.00 in
01:04 79.9 °F 75.7 °F 29.79 in SSE 3.0 mph 5.0 mph 87 % 0.00 in
01:09 79.9 °F 75.7 °F 29.80 in South 3.0 mph 5.0 mph 87 % 0.00 in
01:14 79.9 °F 75.9 °F 29.80 in WSW 2.0 mph 5.0 mph 88 % 0.00 in
01:19 79.9 °F 75.9 °F 29.79 in SE 3.0 mph 5.0 mph 88 % 0.00 in
01:24 79.9 °F 75.9 °F 29.79 in SSW 4.0 mph 6.0 mph 88 % 0.00 in
01:29 79.9 °F 76.3 °F 29.79 in SSW 3.0 mph 7.0 mph 89 % 0.00 in
01:34 79.7 °F 76.1 °F 29.79 in SSW 1.0 mph 7.0 mph 89 % 0.00 in
01:39 79.7 °F 76.1 °F 29.78 in SE 4.0 mph 7.0 mph 89 % 0.00 in
01:44 79.5 °F 75.9 °F 29.78 in SSW 4.0 mph 7.0 mph 89 % 0.00 in
01:49 79.5 °F 75.9 °F 29.78 in SE 3.0 mph 7.0 mph 89 % 0.00 in
01:54 79.5 °F 76.3 °F 29.78 in SSW 2.0 mph 7.0 mph 90 % 0.00 in
01:59 79.3 °F 76.1 °F 29.78 in SSE 1.0 mph 6.0 mph 90 % 0.00 in
02:04 79.3 °F 76.1 °F 29.78 in SSE 1.0 mph 6.0 mph 90 % 0.00 in
02:09 79.3 °F 76.1 °F 29.78 in SE 2.0 mph 6.0 mph 90 % 0.00 in
02:14 79.3 °F 76.1 °F 29.78 in ESE 4.0 mph 5.0 mph 90 % 0.00 in
02:19 79.3 °F 76.1 °F 29.78 in SE 2.0 mph 6.0 mph 90 % 0.00 in
02:24 79.3 °F 76.1 °F 29.77 in SE 1.0 mph 6.0 mph 90 % 0.00 in
02:29 79.2 °F 75.9 °F 29.77 in SE 1.0 mph 6.0 mph 90 % 0.00 in
02:34 79.2 °F 76.3 °F 29.77 in SE 1.0 mph 9.0 mph 91 % 0.00 in
02:39 79.2 °F 76.3 °F 29.78 in SSE 3.0 mph 9.0 mph 91 % 0.00 in
02:44 79.2 °F 76.3 °F 29.77 in SSE 2.0 mph 9.0 mph 91 % 0.00 in
02:49 79.2 °F 76.3 °F 29.77 in SE 2.0 mph 5.0 mph 91 % 0.00 in
02:54 79.2 °F 76.3 °F 29.78 in SSE 4.0 mph 4.0 mph 91 % 0.00 in
02:59 79.2 °F 76.3 °F 29.78 in SSE 7.0 mph 7.0 mph 91 % 0.00 in
03:04 79.2 °F 76.3 °F 29.77 in South 7.0 mph 7.0 mph 91 % 0.00 in
03:09 79.2 °F 76.3 °F 29.77 in South 2.0 mph 8.0 mph 91 % 0.00 in
03:14 79.2 °F 76.3 °F 29.77 in South 4.0 mph 8.0 mph 91 % 0.00 in
03:19 79.3 °F 76.5 °F 29.77 in SE 3.0 mph 8.0 mph 91 % 0.00 in
03:24 79.3 °F 76.5 °F 29.77 in SSE 7.0 mph 8.0 mph 91 % 0.00 in
03:29 79.3 °F 76.5 °F 29.77 in SSE 3.0 mph 8.0 mph 91 % 0.00 in
03:34 79.3 °F 76.5 °F 29.77 in South 3.0 mph 9.0 mph 91 % 0.00 in
03:40 79.3 °F 76.5 °F 29.77 in SSE 4.0 mph 9.0 mph 91 % 0.00 in
03:45 79.3 °F 76.5 °F 29.77 in South 3.0 mph 9.0 mph 91 % 0.00 in
03:50 79.3 °F 76.5 °F 29.77 in SW 3.0 mph 10.0 mph 91 % 0.00 in
03:55 79.2 °F 76.3 °F 29.77 in South 2.0 mph 10.0 mph 91 % 0.00 in
04:00 79.2 °F 76.6 °F 29.77 in South 3.0 mph 9.0 mph 92 % 0.00 in
04:05 79.2 °F 76.6 °F 29.77 in SSE 4.0 mph 9.0 mph 92 % 0.00 in
04:10 79.0 °F 76.5 °F 29.77 in SSE 3.0 mph 7.0 mph 92 % 0.00 in
04:15 79.0 °F 76.5 °F 29.77 in SSW 3.0 mph 7.0 mph 92 % 0.00 in
04:20 79.0 °F 76.5 °F 29.78 in SE 3.0 mph 7.0 mph 92 % 0.00 in
04:25 79.0 °F 76.5 °F 29.78 in SW 3.0 mph 6.0 mph 92 % 0.00 in
04:30 79.0 °F 76.5 °F 29.78 in South 4.0 mph 6.0 mph 92 % 0.00 in
04:35 79.0 °F 76.5 °F 29.78 in SSW 2.0 mph 6.0 mph 92 % 0.00 in
04:40 79.0 °F 76.5 °F 29.78 in SSE 3.0 mph 6.0 mph 92 % 0.00 in
04:45 79.0 °F 76.5 °F 29.78 in South 6.0 mph 7.0 mph 92 % 0.00 in
04:50 79.0 °F 76.5 °F 29.78 in SSW 3.0 mph 8.0 mph 92 % 0.00 in
04:55 79.0 °F 76.5 °F 29.78 in South 4.0 mph 8.0 mph 92 % 0.00 in
05:00 79.0 °F 76.5 °F 29.78 in SSE 3.0 mph 8.0 mph 92 % 0.00 in
05:05 79.0 °F 76.5 °F 29.78 in SSE 2.0 mph 7.0 mph 92 % 0.00 in
05:10 79.0 °F 76.8 °F 29.78 in South 3.0 mph 8.0 mph 93 % 0.00 in
05:15 79.0 °F 76.8 °F 29.78 in SSE 5.0 mph 9.0 mph 93 % 0.00 in
05:20 79.0 °F 76.8 °F 29.78 in South 3.0 mph 9.0 mph 93 % 0.00 in
05:25 79.0 °F 76.8 °F 29.78 in South 5.0 mph 9.0 mph 93 % 0.00 in
05:30 79.0 °F 76.8 °F 29.78 in ESE 2.0 mph 8.0 mph 93 % 0.00 in
05:35 79.0 °F 76.5 °F 29.78 in South 3.0 mph 9.0 mph 92 % 0.00 in
05:40 79.0 °F 76.5 °F 29.77 in SE 2.0 mph 9.0 mph 92 % 0.00 in
05:46 79.0 °F 76.5 °F 29.78 in South 4.0 mph 9.0 mph 92 % 0.00 in
05:51 78.8 °F 76.3 °F 29.77 in SE 4.0 mph 9.0 mph 92 % 0.00 in
05:56 78.6 °F 76.5 °F 29.78 in South 4.0 mph 8.0 mph 93 % 0.00 in
06:01 78.6 °F 76.5 °F 29.78 in SSW 5.0 mph 8.0 mph 93 % 0.00 in
06:06 78.6 °F 76.5 °F 29.78 in SSE 3.0 mph 8.0 mph 93 % 0.00 in
06:11 78.4 °F 76.3 °F 29.78 in SSE 2.0 mph 8.0 mph 93 % 0.00 in
06:16 78.4 °F 76.3 °F 29.78 in SSW 6.0 mph 7.0 mph 93 % 0.00 in
06:21 78.4 °F 76.3 °F 29.78 in SSE 4.0 mph 8.0 mph 93 % 0.00 in
06:26 78.4 °F 76.3 °F 29.78 in SSW 2.0 mph 8.0 mph 93 % 0.00 in
06:31 78.3 °F 76.1 °F 29.78 in SSE 4.0 mph 8.0 mph 93 % 0.00 in
06:36 78.3 °F 76.1 °F 29.78 in South 2.0 mph 6.0 mph 93 % 0.00 in
06:41 78.3 °F 76.1 °F 29.78 in SE 2.0 mph 9.0 mph 93 % 0.00 in
06:46 78.3 °F 76.1 °F 29.78 in SSE 4.0 mph 9.0 mph 93 % 0.00 in
06:51 78.3 °F 76.1 °F 29.78 in SSE 4.0 mph 9.0 mph 93 % 0.00 in
06:56 78.3 °F 76.1 °F 29.78 in SE 3.0 mph 9.0 mph 93 % 0.00 in
06:57 78.3 °F 76.1 °F 29.78 in SSE 6.0 mph 9.0 mph 93 % 0.00 in
07:02 78.3 °F 76.1 °F 29.78 in SE 5.0 mph 9.0 mph 93 % 0.00 in
07:07 78.3 °F 76.1 °F 29.78 in SE 4.0 mph 9.0 mph 93 % 0.00 in
07:12 78.3 °F 75.7 °F 29.78 in SE 2.0 mph 9.0 mph 92 % 0.00 in
07:17 78.4 °F 75.9 °F 29.79 in SE 6.0 mph 10.0 mph 92 % 0.00 in
07:22 78.4 °F 75.9 °F 29.79 in South 4.0 mph 10.0 mph 92 % 0.00 in
07:27 78.6 °F 76.1 °F 29.79 in SSE 6.0 mph 10.0 mph 92 % 0.00 in
07:32 79.0 °F 76.5 °F 29.79 in South 3.0 mph 8.0 mph 92 % 0.00 in
07:37 79.2 °F 76.3 °F 29.79 in SSW 5.0 mph 8.0 mph 91 % 0.00 in
07:42 79.3 °F 76.5 °F 29.79 in SSW 5.0 mph 9.0 mph 91 % 0.00 in
07:47 79.5 °F 76.3 °F 29.79 in SSE 4.0 mph 9.0 mph 90 % 0.00 in
07:52 79.7 °F 76.5 °F 29.79 in SSW 6.0 mph 9.0 mph 90 % 0.00 in
07:57 80.1 °F 76.8 °F 29.79 in South 4.0 mph 9.0 mph 90 % 0.00 in
08:02 80.1 °F 76.5 °F 29.79 in SSE 5.0 mph 9.0 mph 89 % 0.00 in
08:07 80.4 °F 76.8 °F 29.80 in SSW 3.0 mph 10.0 mph 89 % 0.00 in
08:12 80.8 °F 77.2 °F 29.80 in SSE 4.0 mph 10.0 mph 89 % 0.00 in
08:17 81.1 °F 77.2 °F 29.80 in SE 3.0 mph 10.0 mph 88 % 0.00 in
08:22 81.7 °F 77.4 °F 29.80 in SSE 4.0 mph 9.0 mph 87 % 0.00 in
08:27 81.7 °F 76.6 °F 29.81 in SE 7.0 mph 11.0 mph 85 % 0.00 in
08:32 81.7 °F 76.6 °F 29.81 in SE 4.0 mph 11.0 mph 85 % 0.00 in
08:37 81.9 °F 76.8 °F 29.81 in South 4.0 mph 11.0 mph 85 % 0.00 in
08:42 82.0 °F 76.6 °F 29.81 in SSE 5.0 mph 11.0 mph 84 % 0.00 in
08:43 82.0 °F 76.6 °F 29.81 in SE 5.0 mph 11.0 mph 84 % 0.00 in
08:48 82.2 °F 76.8 °F 29.81 in SE 4.0 mph 11.0 mph 84 % 0.00 in
08:53 82.4 °F 77.0 °F 29.81 in South 3.0 mph 9.0 mph 84 % 0.00 in
08:58 82.6 °F 76.8 °F 29.81 in SE 3.0 mph 9.0 mph 83 % 0.00 in
09:03 82.6 °F 76.5 °F 29.81 in SSE 6.0 mph 9.0 mph 82 % 0.00 in
09:08 82.8 °F 76.6 °F 29.81 in SSE 7.0 mph 11.0 mph 82 % 0.00 in
09:13 82.8 °F 76.6 °F 29.81 in South 6.0 mph 12.0 mph 82 % 0.00 in
09:18 82.8 °F 76.3 °F 29.81 in SE 7.0 mph 14.0 mph 81 % 0.00 in
09:23 82.9 °F 76.5 °F 29.81 in ESE 8.0 mph 14.0 mph 81 % 0.00 in
09:28 83.3 °F 76.5 °F 29.81 in SSE 7.0 mph 14.0 mph 80 % 0.00 in
09:33 83.5 °F 76.6 °F 29.81 in SSW 4.0 mph 13.0 mph 80 % 0.00 in
09:38 83.5 °F 77.0 °F 29.81 in SSE 3.0 mph 12.0 mph 81 % 0.00 in
09:43 83.7 °F 77.2 °F 29.81 in SSW 6.0 mph 12.0 mph 81 % 0.00 in
09:48 84.0 °F 76.8 °F 29.81 in SSE 9.0 mph 10.0 mph 79 % 0.00 in
09:53 84.0 °F 76.5 °F 29.81 in SSE 5.0 mph 10.0 mph 78 % 0.00 in
09:58 84.0 °F 76.5 °F 29.81 in SSE 6.0 mph 13.0 mph 78 % 0.00 in
10:03 84.4 °F 76.8 °F 29.81 in South 7.0 mph 13.0 mph 78 % 0.00 in
10:08 84.6 °F 76.5 °F 29.81 in SSW 2.0 mph 13.0 mph 77 % 0.00 in
10:13 85.1 °F 77.0 °F 29.81 in SSW 4.0 mph 11.0 mph 77 % 0.00 in
10:18 85.8 °F 76.6 °F 29.81 in SSE 8.0 mph 11.0 mph 74 % 0.00 in
10:23 85.8 °F 76.6 °F 29.81 in ENE 9.0 mph 12.0 mph 74 % 0.00 in
10:28 86.2 °F 77.0 °F 29.81 in SSE 7.0 mph 12.0 mph 74 % 0.00 in
10:33 86.2 °F 76.1 °F 29.81 in SSE 9.0 mph 12.0 mph 72 % 0.00 in
10:38 86.4 °F 76.3 °F 29.81 in SSE 9.0 mph 16.0 mph 72 % 0.00 in
10:43 86.2 °F 76.1 °F 29.81 in SSW 6.0 mph 16.0 mph 72 % 0.00 in
10:48 86.2 °F 76.5 °F 29.81 in SSE 9.0 mph 16.0 mph 73 % 0.00 in
10:53 86.2 °F 76.1 °F 29.81 in SSW 8.0 mph 15.0 mph 72 % 0.00 in
10:58 86.5 °F 75.9 °F 29.81 in SSE 13.0 mph 14.0 mph 71 % 0.00 in
11:03 87.1 °F 76.5 °F 29.81 in SW 3.0 mph 14.0 mph 71 % 0.00 in
11:08 87.4 °F 76.5 °F 29.81 in ESE 9.0 mph 14.0 mph 70 % 0.00 in
11:10 87.6 °F 77.5 °F 29.81 in SE 9.0 mph 14.0 mph 72 % 0.00 in
11:15 88.0 °F 77.0 °F 29.81 in SSE 6.0 mph 14.0 mph 70 % 0.00 in
11:20 88.3 °F 77.4 °F 29.81 in SSW 11.0 mph 11.0 mph 70 % 0.00 in
11:25 88.5 °F 76.1 °F 29.81 in SSW 4.0 mph 11.0 mph 67 % 0.00 in
11:30 88.3 °F 76.5 °F 29.81 in SW 1.0 mph 11.0 mph 68 % 0.00 in
11:32 88.5 °F 77.0 °F 29.81 in SSW 8.0 mph 12.0 mph 69 % 0.00 in
11:37 89.2 °F 76.5 °F 29.81 in SSE 6.0 mph 12.0 mph 66 % 0.00 in
11:42 89.8 °F 76.8 °F 29.81 in SSW 5.0 mph 12.0 mph 66 % 0.00 in
11:47 90.0 °F 77.0 °F 29.81 in SSW 4.0 mph 13.0 mph 66 % 0.00 in
11:52 90.5 °F 77.2 °F 29.80 in WSW 6.0 mph 13.0 mph 65 % 0.00 in
11:57 90.9 °F 77.0 °F 29.81 in South 6.0 mph 13.0 mph 64 % 0.00 in
12:02 90.9 °F 76.5 °F 29.80 in SSW 8.0 mph 12.0 mph 63 % 0.00 in
12:08 90.9 °F 76.1 °F 29.80 in SE 10.0 mph 12.0 mph 62 % 0.00 in
12:13 90.7 °F 76.8 °F 29.80 in SSE 10.0 mph 13.0 mph 64 % 0.00 in
12:18 90.9 °F 77.5 °F 29.79 in SSW 8.0 mph 13.0 mph 65 % 0.00 in
12:22 90.9 °F 76.1 °F 29.80 in SSE 7.0 mph 13.0 mph 62 % 0.00 in
12:28 91.0 °F 76.6 °F 29.79 in South 8.0 mph 13.0 mph 63 % 0.00 in
12:33 91.2 °F 77.4 °F 29.79 in SSW 3.0 mph 14.0 mph 64 % 0.00 in
12:38 91.2 °F 75.9 °F 29.79 in SSE 5.0 mph 14.0 mph 61 % 0.00 in
12:43 91.9 °F 76.6 °F 29.79 in SSW 9.0 mph 14.0 mph 61 % 0.00 in
12:53 91.6 °F 76.3 °F 29.79 in SE 4.0 mph 13.0 mph 61 % 0.00 in
12:58 91.6 °F 75.7 °F 29.78 in SSE 5.0 mph 13.0 mph 60 % 0.00 in
13:03 91.2 °F 76.3 °F 29.79 in South 3.0 mph 13.0 mph 62 % 0.00 in
13:08 91.9 °F 75.6 °F 29.79 in SSE 6.0 mph 11.0 mph 59 % 0.00 in
13:13 91.8 °F 76.5 °F 29.79 in SW 6.0 mph 12.0 mph 61 % 0.00 in
13:18 91.6 °F 75.7 °F 29.79 in SSE 6.0 mph 15.0 mph 60 % 0.00 in
13:23 91.6 °F 76.6 °F 29.79 in ESE 6.0 mph 15.0 mph 62 % 0.00 in
13:28 91.8 °F 75.4 °F 29.78 in SSW 5.0 mph 15.0 mph 59 % 0.00 in
13:33 92.1 °F 75.7 °F 29.78 in SSE 10.0 mph 12.0 mph 59 % 0.00 in
13:38 91.8 °F 76.5 °F 29.78 in SSE 4.0 mph 12.0 mph 61 % 0.00 in
13:43 92.5 °F 75.6 °F 29.78 in SSE 6.0 mph 11.0 mph 58 % 0.00 in
13:48 92.8 °F 75.9 °F 29.78 in SE 7.0 mph 11.0 mph 58 % 0.00 in
13:53 93.0 °F 76.6 °F 29.78 in SSE 9.0 mph 11.0 mph 59 % 0.00 in
13:58 92.5 °F 76.6 °F 29.78 in SSW 3.0 mph 11.0 mph 60 % 0.00 in
14:03 92.7 °F 77.2 °F 29.78 in NNW 2.0 mph 11.0 mph 61 % 0.00 in
14:06 92.7 °F 76.3 °F 29.78 in SSW 5.0 mph 13.0 mph 59 % 0.00 in
14:12 92.7 °F 76.8 °F 29.78 in SSW 5.0 mph 13.0 mph 60 % 0.00 in
14:17 92.8 °F 75.9 °F 29.78 in SSE 3.0 mph 13.0 mph 58 % 0.00 in
14:22 92.7 °F 76.8 °F 29.78 in South 10.0 mph 10.0 mph 60 % 0.00 in
14:27 92.1 °F 76.3 °F 29.78 in ESE 6.0 mph 13.0 mph 60 % 0.00 in
14:32 92.1 °F 75.7 °F 29.78 in South 5.0 mph 13.0 mph 59 % 0.00 in
14:37 92.5 °F 76.1 °F 29.77 in SSE 3.0 mph 13.0 mph 59 % 0.00 in
14:42 92.8 °F 76.8 °F 29.77 in SW 2.0 mph 9.0 mph 60 % 0.00 in
14:47 92.8 °F 77.4 °F 29.77 in SSE 3.0 mph 9.0 mph 61 % 0.00 in
14:52 92.7 °F 76.3 °F 29.77 in SSW 6.0 mph 9.0 mph 59 % 0.00 in
14:57 92.5 °F 76.1 °F 29.77 in SSE 6.0 mph 9.0 mph 59 % 0.00 in
15:02 92.5 °F 76.6 °F 29.77 in SSE 5.0 mph 10.0 mph 60 % 0.00 in
15:07 93.0 °F 76.6 °F 29.76 in South 2.0 mph 10.0 mph 59 % 0.00 in
15:12 93.2 °F 76.3 °F 29.76 in SE 3.0 mph 10.0 mph 58 % 0.00 in
15:17 93.4 °F 77.9 °F 29.76 in South 2.0 mph 10.0 mph 61 % 0.00 in
15:22 93.7 °F 77.7 °F 29.76 in SW 4.0 mph 10.0 mph 60 % 0.00 in
15:27 93.4 °F 76.5 °F 29.76 in SE 8.0 mph 10.0 mph 58 % 0.00 in
15:32 93.0 °F 76.6 °F 29.76 in SW 3.0 mph 12.0 mph 59 % 0.00 in
15:37 93.0 °F 76.1 °F 29.76 in SSW 5.0 mph 12.0 mph 58 % 0.00 in
15:42 93.0 °F 76.1 °F 29.75 in South 6.0 mph 12.0 mph 58 % 0.00 in
15:47 92.8 °F 75.9 °F 29.75 in SSE 7.0 mph 11.0 mph 58 % 0.00 in
15:52 92.8 °F 76.5 °F 29.75 in SE 5.0 mph 11.0 mph 59 % 0.00 in
15:57 92.8 °F 76.8 °F 29.75 in South 4.0 mph 11.0 mph 60 % 0.00 in
16:02 93.6 °F 77.0 °F 29.74 in South 9.0 mph 11.0 mph 59 % 0.00 in
16:07 93.9 °F 77.4 °F 29.74 in ESE 8.0 mph 9.0 mph 59 % 0.00 in
16:12 93.7 °F 77.2 °F 29.74 in SE 8.0 mph 13.0 mph 59 % 0.00 in
16:17 93.2 °F 76.6 °F 29.73 in South 5.0 mph 13.0 mph 59 % 0.00 in
16:22 92.8 °F 76.8 °F 29.73 in SE 6.0 mph 13.0 mph 60 % 0.00 in
16:27 92.8 °F 77.4 °F 29.73 in SSE 10.0 mph 12.0 mph 61 % 0.00 in
16:32 93.0 °F 77.0 °F 29.73 in SSE 7.0 mph 12.0 mph 60 % 0.00 in
16:37 93.4 °F 77.4 °F 29.73 in ESE 7.0 mph 12.0 mph 60 % 0.00 in
16:42 93.6 °F 77.0 °F 29.72 in South 2.0 mph 12.0 mph 59 % 0.00 in
16:47 93.4 °F 76.8 °F 29.72 in South 7.0 mph 11.0 mph 59 % 0.00 in
16:52 93.6 °F 77.0 °F 29.72 in SSW 4.0 mph 11.0 mph 59 % 0.00 in
16:57 93.6 °F 77.0 °F 29.72 in South 4.0 mph 12.0 mph 59 % 0.00 in
17:02 93.9 °F 76.3 °F 29.71 in SE 5.0 mph 12.0 mph 57 % 0.00 in
17:07 93.4 °F 76.5 °F 29.71 in SSW 7.0 mph 14.0 mph 58 % 0.00 in
17:12 93.0 °F 76.6 °F 29.71 in SSW 6.0 mph 14.0 mph 59 % 0.00 in
17:17 92.7 °F 76.3 °F 29.71 in SE 11.0 mph 14.0 mph 59 % 0.00 in
17:22 92.7 °F 76.3 °F 29.71 in South 4.0 mph 14.0 mph 59 % 0.00 in
17:27 92.7 °F 76.8 °F 29.71 in SE 6.0 mph 14.0 mph 60 % 0.00 in
17:32 91.9 °F 76.1 °F 29.71 in SSE 7.0 mph 14.0 mph 60 % 0.00 in
17:37 91.8 °F 75.9 °F 29.71 in SSE 3.0 mph 13.0 mph 60 % 0.00 in
17:42 91.6 °F 76.3 °F 29.71 in SSW 3.0 mph 13.0 mph 61 % 0.00 in
17:47 91.8 °F 76.5 °F 29.71 in SSW 8.0 mph 11.0 mph 61 % 0.00 in
17:52 92.1 °F 76.6 °F 29.72 in South 4.0 mph 10.0 mph 61 % 0.00 in
17:57 92.1 °F 76.3 °F 29.72 in SE 5.0 mph 10.0 mph 60 % 0.00 in
18:02 91.9 °F 76.6 °F 29.72 in South 7.0 mph 11.0 mph 61 % 0.00 in
18:07 91.9 °F 76.1 °F 29.72 in SE 4.0 mph 11.0 mph 60 % 0.00 in
18:12 91.6 °F 76.3 °F 29.72 in SW 2.0 mph 11.0 mph 61 % 0.00 in
18:17 91.0 °F 75.7 °F 29.71 in SW 5.0 mph 11.0 mph 61 % 0.00 in
18:22 90.9 °F 76.1 °F 29.72 in South 7.0 mph 11.0 mph 62 % 0.00 in
18:27 91.0 °F 75.7 °F 29.72 in ESE 7.0 mph 11.0 mph 61 % 0.00 in
18:32 91.0 °F 76.3 °F 29.72 in SSW 3.0 mph 10.0 mph 62 % 0.00 in
18:37 91.2 °F 76.3 °F 29.72 in SW 2.0 mph 10.0 mph 62 % 0.00 in
18:42 91.6 °F 76.3 °F 29.72 in South 5.0 mph 10.0 mph 61 % 0.00 in
18:47 91.0 °F 75.7 °F 29.72 in SSW 4.0 mph 9.0 mph 61 % 0.00 in
18:48 91.0 °F 75.7 °F 29.72 in SSW 4.0 mph 9.0 mph 61 % 0.00 in
18:53 90.9 °F 76.1 °F 29.72 in ENE 6.0 mph 10.0 mph 62 % 0.00 in
18:58 90.9 °F 76.1 °F 29.73 in SSE 4.0 mph 10.0 mph 62 % 0.00 in
19:03 90.7 °F 76.3 °F 29.73 in SSE 4.0 mph 10.0 mph 63 % 0.00 in
19:08 90.5 °F 76.1 °F 29.72 in SSE 4.0 mph 9.0 mph 63 % 0.00 in
19:13 90.3 °F 75.9 °F 29.73 in SSW 4.0 mph 9.0 mph 63 % 0.00 in
19:18 90.5 °F 76.1 °F 29.73 in SSW 3.0 mph 9.0 mph 63 % 0.00 in
19:23 90.3 °F 76.5 °F 29.73 in SSW 6.0 mph 7.0 mph 64 % 0.00 in
19:28 90.1 °F 76.8 °F 29.73 in SSW 5.0 mph 9.0 mph 65 % 0.00 in
19:33 89.8 °F 76.5 °F 29.73 in South 7.0 mph 11.0 mph 65 % 0.00 in
19:38 89.2 °F 76.5 °F 29.73 in SE 12.0 mph 12.0 mph 66 % 0.00 in
19:43 89.1 °F 76.6 °F 29.73 in SSW 3.0 mph 12.0 mph 67 % 0.00 in
19:48 88.9 °F 76.5 °F 29.73 in ESE 11.0 mph 12.0 mph 67 % 0.00 in
19:53 88.3 °F 75.9 °F 29.73 in SSW 6.0 mph 15.0 mph 67 % 0.00 in
19:58 88.2 °F 75.7 °F 29.73 in SSE 5.0 mph 15.0 mph 67 % 0.00 in
20:03 88.0 °F 75.6 °F 29.73 in SE 7.0 mph 15.0 mph 67 % 0.00 in
20:08 87.6 °F 75.4 °F 29.73 in SSW 6.0 mph 13.0 mph 67 % 0.00 in
20:13 87.4 °F 75.2 °F 29.73 in SE 3.0 mph 12.0 mph 67 % 0.00 in
20:18 87.3 °F 75.4 °F 29.73 in SSE 6.0 mph 11.0 mph 68 % 0.00 in
20:23 87.3 °F 75.4 °F 29.73 in South 4.0 mph 10.0 mph 68 % 0.00 in
20:28 86.9 °F 75.6 °F 29.73 in SSW 7.0 mph 10.0 mph 69 % 0.00 in
20:33 86.7 °F 75.4 °F 29.73 in SSW 10.0 mph 12.0 mph 69 % 0.00 in
20:38 86.7 °F 75.7 °F 29.73 in ESE 6.0 mph 12.0 mph 70 % 0.00 in
20:43 86.5 °F 75.6 °F 29.73 in SE 5.0 mph 12.0 mph 70 % 0.00 in
20:48 86.4 °F 75.9 °F 29.73 in ESE 5.0 mph 11.0 mph 71 % 0.00 in
20:53 86.2 °F 75.7 °F 29.73 in SSE 4.0 mph 11.0 mph 71 % 0.00 in
20:58 85.8 °F 75.7 °F 29.73 in SE 5.0 mph 10.0 mph 72 % 0.00 in
21:03 85.6 °F 76.5 °F 29.72 in SE 2.0 mph 10.0 mph 74 % 0.00 in
21:08 85.5 °F 76.3 °F 29.73 in SW 6.0 mph 10.0 mph 74 % 0.00 in
21:13 85.3 °F 76.5 °F 29.73 in SSE 3.0 mph 13.0 mph 75 % 0.00 in
21:18 84.9 °F 75.7 °F 29.73 in SE 7.0 mph 13.0 mph 74 % 0.00 in
21:23 84.9 °F 75.7 °F 29.73 in SSW 5.0 mph 13.0 mph 74 % 0.00 in
21:28 84.7 °F 75.6 °F 29.74 in SSE 3.0 mph 12.0 mph 74 % 0.00 in
21:33 84.6 °F 75.7 °F 29.74 in SSW 6.0 mph 14.0 mph 75 % 0.00 in
21:34 84.6 °F 75.7 °F 29.74 in SSE 6.0 mph 14.0 mph 75 % 0.00 in
21:39 84.4 °F 75.6 °F 29.74 in SSE 5.0 mph 14.0 mph 75 % 0.00 in
21:44 84.4 °F 75.9 °F 29.74 in SW 3.0 mph 14.0 mph 76 % 0.00 in
21:49 84.0 °F 75.6 °F 29.74 in South 4.0 mph 10.0 mph 76 % 0.00 in
21:54 83.8 °F 75.9 °F 29.74 in South 5.0 mph 10.0 mph 77 % 0.00 in
21:59 83.7 °F 75.7 °F 29.74 in SE 5.0 mph 11.0 mph 77 % 0.00 in
22:04 83.7 °F 75.7 °F 29.74 in SSE 4.0 mph 11.0 mph 77 % 0.00 in
22:09 83.7 °F 76.1 °F 29.75 in SSE 6.0 mph 11.0 mph 78 % 0.00 in
22:14 83.7 °F 76.1 °F 29.75 in SE 3.0 mph 15.0 mph 78 % 0.00 in
22:19 83.5 °F 75.9 °F 29.75 in South 3.0 mph 15.0 mph 78 % 0.00 in
22:24 83.3 °F 76.1 °F 29.75 in SSE 3.0 mph 15.0 mph 79 % 0.00 in
22:29 83.1 °F 75.9 °F 29.75 in SSE 7.0 mph 10.0 mph 79 % 0.00 in
22:34 83.1 °F 76.3 °F 29.76 in South 7.0 mph 10.0 mph 80 % 0.00 in
22:39 82.9 °F 76.1 °F 29.75 in SSW 5.0 mph 9.0 mph 80 % 0.00 in
22:44 82.9 °F 76.1 °F 29.75 in SSW 3.0 mph 12.0 mph 80 % 0.00 in
22:49 82.8 °F 76.3 °F 29.74 in SSE 4.0 mph 12.0 mph 81 % 0.00 in
22:54 82.6 °F 76.1 °F 29.74 in South 5.0 mph 12.0 mph 81 % 0.00 in
22:58 82.6 °F 76.1 °F 29.74 in South 9.0 mph 13.0 mph 81 % 0.00 in
23:03 82.6 °F 76.1 °F 29.74 in South 6.0 mph 13.0 mph 81 % 0.00 in
23:08 82.4 °F 76.3 °F 29.74 in SW 6.0 mph 13.0 mph 82 % 0.00 in
23:13 82.2 °F 76.5 °F 29.74 in SSE 5.0 mph 13.0 mph 83 % 0.00 in
23:18 82.2 °F 76.5 °F 29.74 in SSW 10.0 mph 13.0 mph 83 % 0.00 in
23:19 82.2 °F 76.5 °F 29.74 in SW 11.0 mph 13.0 mph 83 % 0.00 in
23:24 82.2 °F 76.5 °F 29.74 in SSE 10.0 mph 13.0 mph 83 % 0.00 in
23:30 82.0 °F 76.3 °F 29.74 in SE 7.0 mph 13.0 mph 83 % 0.00 in
23:35 82.0 °F 76.3 °F 29.73 in South 7.0 mph 13.0 mph 83 % 0.00 in
23:40 81.9 °F 76.5 °F 29.73 in SSW 7.0 mph 12.0 mph 84 % 0.00 in
23:45 81.9 °F 76.5 °F 29.73 in SE 10.0 mph 12.0 mph 84 % 0.00 in
23:50 81.7 °F 76.3 °F 29.72 in SSE 8.0 mph 13.0 mph 84 % 0.00 in
23:55 81.7 °F 76.3 °F 29.71 in SW 9.0 mph 13.0 mph 84 % 0.00 in
Spring, Texas: Villages of Bridgestone
Compliments of Weather Underground - 2.75 mb

Script developed by  Jim McMurry - jmcmurry@mwt.net Adapted for the template by  Wim van der Kuil - Leuven-Template.eu

You find our weather info also at:

UK Metoffice

WeatherCloud

Weather Underground

Mid-South Weather Network

AWEKAS

Citizen Weather Observer Program (CWOP)

HAMweather, WeatherForYou, PWS Weather

Equipment we use:

Weather-station
Davis Vantage Vue

Weather-program
Meteohub

Weather-server
Debian 7.9 x86 (Guest)

Provider
DreamHost

Davis Vantage Vue

Meteohub

Debian 7.9 x86 (Guest)

DreamHost